createdAt,value
2024-05-09T00:00:39.977Z,15.25
2024-05-09T00:03:26.650Z,15.08
2024-05-09T00:06:16.246Z,15.19
2024-05-09T00:09:01.375Z,15.15
2024-05-09T00:11:47.091Z,15.23
2024-05-09T00:14:32.483Z,15.22
2024-05-09T00:17:17.943Z,15.13
2024-05-09T00:20:09.069Z,15.15
2024-05-09T00:22:59.126Z,15.07
2024-05-09T00:25:45.459Z,15.07
2024-05-09T00:28:30.716Z,14.99
2024-05-09T00:31:16.433Z,15.03
2024-05-09T00:34:01.840Z,14.99
2024-05-09T00:36:47.466Z,14.96
2024-05-09T00:39:32.592Z,14.99
2024-05-09T00:42:18.040Z,14.83
2024-05-09T00:45:03.618Z,15.03
2024-05-09T00:47:49.517Z,15.09
2024-05-09T00:50:38.172Z,15.11
2024-05-09T00:53:24.749Z,14.97
2024-05-09T00:56:11.957Z,15.02
2024-05-09T00:58:57.338Z,14.78
2024-05-09T01:01:43.439Z,14.97
2024-05-09T01:04:28.926Z,15.01
2024-05-09T01:07:14.602Z,14.87
2024-05-09T01:10:00.035Z,14.95
2024-05-09T01:12:45.549Z,14.97
2024-05-09T01:15:30.903Z,14.90
2024-05-09T01:18:16.461Z,14.82
2024-05-09T01:21:02.191Z,14.73
2024-05-09T01:23:47.869Z,14.78
2024-05-09T01:26:33.323Z,14.87
2024-05-09T01:29:19.006Z,14.86
2024-05-09T01:32:05.086Z,14.87
2024-05-09T01:34:50.587Z,14.90
2024-05-09T01:37:36.057Z,14.84
2024-05-09T01:40:28.656Z,14.76
2024-05-09T01:43:20.798Z,14.82
2024-05-09T01:46:06.127Z,14.77
2024-05-09T01:48:51.610Z,14.85
2024-05-09T01:51:36.701Z,14.81
2024-05-09T01:54:22.382Z,14.77
2024-05-09T01:57:07.998Z,14.77
2024-05-09T01:59:53.603Z,14.75
2024-05-09T02:02:38.900Z,14.76
2024-05-09T02:05:24.591Z,14.67
2024-05-09T02:08:18.659Z,14.64
2024-05-09T02:11:04.736Z,14.68
2024-05-09T02:13:50.235Z,14.52
2024-05-09T02:16:35.724Z,14.63
2024-05-09T02:19:21.013Z,14.71
2024-05-09T02:22:06.755Z,14.58
2024-05-09T02:24:52.028Z,14.69
2024-05-09T02:27:37.919Z,14.64
2024-05-09T02:30:30.703Z,14.76
2024-05-09T02:33:24.045Z,14.68
2024-05-09T02:36:10.407Z,14.65
2024-05-09T02:38:56.007Z,14.69
2024-05-09T02:41:41.529Z,14.58
2024-05-09T02:44:27.064Z,14.63
2024-05-09T02:47:12.892Z,14.61
2024-05-09T02:49:58.545Z,14.59
2024-05-09T02:52:44.388Z,14.62
2024-05-09T02:55:29.948Z,14.44
2024-05-09T02:58:15.407Z,14.40
2024-05-09T03:01:01.249Z,14.43
2024-05-09T03:03:48.513Z,14.45
2024-05-09T03:06:34.107Z,14.45
2024-05-09T03:09:19.414Z,14.32
2024-05-09T03:12:05.192Z,14.40
2024-05-09T03:14:50.914Z,14.44
2024-05-09T03:17:36.908Z,14.53
2024-05-09T03:20:27.596Z,14.46
2024-05-09T03:23:18.340Z,14.48
2024-05-09T03:26:03.738Z,14.46
2024-05-09T03:28:49.518Z,14.42
2024-05-09T03:31:34.709Z,14.39
2024-05-09T03:34:20.501Z,14.44
2024-05-09T03:37:06.018Z,13.99
2024-05-09T03:39:51.366Z,14.44
2024-05-09T03:42:41.786Z,14.43
2024-05-09T03:45:27.016Z,14.10
2024-05-09T03:48:13.220Z,14.38
2024-05-09T03:50:58.739Z,14.34
2024-05-09T03:53:44.159Z,14.29
2024-05-09T03:56:29.730Z,14.32
2024-05-09T03:59:15.452Z,14.32
2024-05-09T04:02:01.042Z,14.25
2024-05-09T04:04:46.501Z,14.25
2024-05-09T04:07:33.367Z,14.25
2024-05-09T04:10:27.688Z,14.23
2024-05-09T04:13:17.931Z,14.34
2024-05-09T04:16:03.767Z,14.25
2024-05-09T04:18:49.710Z,14.25
2024-05-09T04:21:35.085Z,14.31
2024-05-09T04:24:20.398Z,14.22
2024-05-09T04:27:05.873Z,14.34
2024-05-09T04:29:51.447Z,14.16
2024-05-09T04:32:36.616Z,14.06
2024-05-09T04:35:22.583Z,14.16
2024-05-09T04:38:11.423Z,14.19
2024-05-09T04:40:56.844Z,14.22
2024-05-09T04:43:42.495Z,14.20
2024-05-09T04:46:28.071Z,14.19
2024-05-09T04:49:14.339Z,14.23
2024-05-09T04:52:02.667Z,14.23
2024-05-09T04:54:48.217Z,14.25
2024-05-09T04:57:34.042Z,14.39
2024-05-09T05:00:28.130Z,14.32
2024-05-09T05:03:18.254Z,14.42
2024-05-09T05:06:04.364Z,14.42
2024-05-09T05:08:49.823Z,14.45
2024-05-09T05:11:35.484Z,14.66
2024-05-09T05:14:20.850Z,14.65
2024-05-09T05:17:06.371Z,14.77
2024-05-09T05:19:51.928Z,14.79
2024-05-09T05:22:37.461Z,14.90
2024-05-09T05:25:22.629Z,14.84
2024-05-09T05:28:08.731Z,14.95
2024-05-09T05:30:54.490Z,14.93
2024-05-09T05:33:39.824Z,15.02
2024-05-09T05:36:25.264Z,15.03
2024-05-09T05:39:10.855Z,15.13
2024-05-09T05:41:56.567Z,15.21
2024-05-09T05:44:42.201Z,15.29
2024-05-09T05:47:27.932Z,15.40
2024-05-09T05:50:23.770Z,15.41
2024-05-09T05:53:13.467Z,15.41
2024-05-09T05:55:58.876Z,15.43
2024-05-09T05:58:44.420Z,15.50
2024-05-09T06:01:30.064Z,15.54
2024-05-09T06:04:15.773Z,15.45
2024-05-09T06:07:01.036Z,15.40
2024-05-09T06:09:47.602Z,15.51
2024-05-09T06:12:34.504Z,15.62
2024-05-09T06:15:19.838Z,15.62
2024-05-09T06:18:10.195Z,15.61
2024-05-09T06:20:56.941Z,15.82
2024-05-09T06:23:50.044Z,15.87
2024-05-09T06:26:35.759Z,15.88
2024-05-09T06:29:21.452Z,15.76
2024-05-09T06:32:07.147Z,16.05
2024-05-09T06:34:52.740Z,16.20
2024-05-09T06:37:38.479Z,16.25
2024-05-09T06:40:29.254Z,16.41
2024-05-09T06:43:20.134Z,16.34
2024-05-09T06:46:05.535Z,16.20
2024-05-09T06:48:51.521Z,16.49
2024-05-09T06:51:41.258Z,16.69
2024-05-09T06:54:26.878Z,16.65
2024-05-09T06:57:12.001Z,16.77
2024-05-09T07:00:01.360Z,16.88
2024-05-09T07:02:46.874Z,17.07
2024-05-09T07:05:33.401Z,17.08
2024-05-09T07:08:19.565Z,17.03
2024-05-09T07:11:05.136Z,17.12
2024-05-09T07:13:50.366Z,17.00
2024-05-09T07:16:35.993Z,17.09
2024-05-09T07:19:21.554Z,17.34
2024-05-09T07:22:07.135Z,18.70
2024-05-09T07:24:54.202Z,20.69
2024-05-09T07:27:39.833Z,22.67
2024-05-09T07:30:32.829Z,24.33
2024-05-09T07:33:22.469Z,25.67
2024-05-09T07:36:09.506Z,26.71
2024-05-09T07:38:54.970Z,26.39
2024-05-09T07:41:40.822Z,27.01
2024-05-09T07:44:26.279Z,28.14
2024-05-09T07:48:27.578Z,28.93
2024-05-09T07:53:36.368Z,28.57
2024-05-09T07:56:12.642Z,29.33
2024-05-09T07:58:58.202Z,29.42
2024-05-09T08:01:43.740Z,29.14
2024-05-09T08:04:29.426Z,29.95
2024-05-09T08:07:15.340Z,29.39
2024-05-09T08:10:00.911Z,28.33
2024-05-09T08:12:46.149Z,28.22
2024-05-09T08:15:31.559Z,27.60
2024-05-09T08:18:17.160Z,27.83
2024-05-09T08:21:02.610Z,26.76
2024-05-09T08:23:47.799Z,26.55
2024-05-09T08:26:33.194Z,25.83
2024-05-09T08:29:18.661Z,25.40
2024-05-09T08:32:05.920Z,24.70
2024-05-09T08:34:51.332Z,24.54
2024-05-09T08:37:39.891Z,24.25
2024-05-09T08:40:33.417Z,23.91
2024-05-09T08:43:24.422Z,23.26
2024-05-09T08:46:13.121Z,22.69
2024-05-09T08:48:59.745Z,21.82
2024-05-09T08:51:46.814Z,22.10
2024-05-09T08:54:32.229Z,21.89
2024-05-09T08:57:19.137Z,21.07
2024-05-09T09:00:10.107Z,20.99
2024-05-09T09:03:00.294Z,21.07
2024-05-09T09:06:07.822Z,21.31
2024-05-09T09:08:54.782Z,21.38
2024-05-09T09:11:39.939Z,21.51
2024-05-09T09:14:25.491Z,21.26
2024-05-09T09:17:17.165Z,21.16
2024-05-09T09:20:02.962Z,21.62
2024-05-09T09:22:48.293Z,21.94
2024-05-09T09:25:33.604Z,21.94
2024-05-09T09:28:22.756Z,21.97
2024-05-09T09:31:08.010Z,22.41
2024-05-09T09:33:54.027Z,22.63
2024-05-09T09:36:40.143Z,22.36
2024-05-09T09:39:28.628Z,22.58
2024-05-09T09:42:22.772Z,22.70
2024-05-09T09:45:08.339Z,23.07
2024-05-09T09:47:57.240Z,22.67
2024-05-09T09:50:43.400Z,22.12
2024-05-09T09:53:29.353Z,21.95
2024-05-09T09:56:18.081Z,21.92
2024-05-09T09:59:04.694Z,22.33
2024-05-09T10:01:50.345Z,22.64
2024-05-09T10:04:36.706Z,22.57
2024-05-09T10:07:22.784Z,22.71
2024-05-09T10:10:11.003Z,22.25
2024-05-09T10:13:06.365Z,22.17
2024-05-09T10:15:53.971Z,22.42
2024-05-09T10:18:40.767Z,22.56
2024-05-09T10:21:27.094Z,22.80
2024-05-09T10:24:12.864Z,22.89
2024-05-09T10:26:58.515Z,23.22
2024-05-09T10:29:53.785Z,23.32
2024-05-09T10:32:40.701Z,23.26
2024-05-09T10:35:26.912Z,23.49
2024-05-09T10:38:12.583Z,23.68
2024-05-09T10:41:00.022Z,23.46
2024-05-09T10:43:45.641Z,23.50
2024-05-09T10:46:31.296Z,23.48
2024-05-09T10:49:17.091Z,23.60
2024-05-09T10:52:03.855Z,23.92
2024-05-09T10:54:50.176Z,24.12
2024-05-09T10:57:40.738Z,24.36
2024-05-09T11:00:36.120Z,24.01
2024-05-09T11:03:26.088Z,23.93
2024-05-09T11:06:11.618Z,23.60
2024-05-09T11:08:57.630Z,23.36
2024-05-09T11:11:43.244Z,23.29
2024-05-09T11:14:28.459Z,23.40
2024-05-09T11:17:13.845Z,23.29
2024-05-09T11:20:00.412Z,23.37
2024-05-09T11:22:45.910Z,23.72
2024-05-09T11:25:33.229Z,23.73
2024-05-09T11:28:20.168Z,24.06
2024-05-09T11:31:07.907Z,24.44
2024-05-09T11:33:54.766Z,24.51
2024-05-09T11:36:40.408Z,24.46
2024-05-09T11:39:27.476Z,24.53
2024-05-09T11:42:13.075Z,24.47
2024-05-09T11:44:58.530Z,24.86
2024-05-09T11:47:44.332Z,24.85
2024-05-09T11:50:32.987Z,24.76
2024-05-09T11:53:20.707Z,24.73
2024-05-09T11:56:06.418Z,24.70
2024-05-09T11:58:52.283Z,24.44
2024-05-09T12:01:37.689Z,23.97
2024-05-09T12:04:23.336Z,23.71
2024-05-09T12:07:12.747Z,23.68
2024-05-09T12:09:59.808Z,23.68
2024-05-09T12:12:45.527Z,23.65
2024-05-09T12:15:31.086Z,23.56
2024-05-09T12:18:16.727Z,23.37
2024-05-09T12:21:02.769Z,23.09
2024-05-09T12:23:48.332Z,23.03
2024-05-09T12:26:33.514Z,22.96
2024-05-09T12:29:18.949Z,23.03
2024-05-09T12:32:04.870Z,23.05
2024-05-09T12:34:50.506Z,22.46
2024-05-09T12:37:36.130Z,22.46
2024-05-09T12:40:30.702Z,21.62
2024-05-09T12:43:20.569Z,21.69
2024-05-09T12:46:06.220Z,21.89
2024-05-09T12:48:52.090Z,21.99
2024-05-09T12:51:38.348Z,22.06
2024-05-09T12:54:23.738Z,21.85
2024-05-09T12:57:09.720Z,21.85
2024-05-09T12:59:56.019Z,21.90
2024-05-09T13:02:41.714Z,22.15
2024-05-09T13:05:27.156Z,22.17
2024-05-09T13:08:13.559Z,22.05
2024-05-09T13:10:59.248Z,21.98
2024-05-09T13:13:44.868Z,22.07
2024-05-09T13:16:31.577Z,22.01
2024-05-09T13:19:17.395Z,22.03
2024-05-09T13:22:02.979Z,22.22
2024-05-09T13:24:48.343Z,22.38
2024-05-09T13:27:34.667Z,22.30
2024-05-09T13:30:26.570Z,22.94
2024-05-09T13:33:20.994Z,23.48
2024-05-09T13:36:07.178Z,23.70
2024-05-09T13:38:52.639Z,23.22
2024-05-09T13:41:38.110Z,23.40
2024-05-09T13:44:23.600Z,23.25
2024-05-09T13:47:09.361Z,22.81
2024-05-09T13:49:54.779Z,23.46
2024-05-09T13:52:40.466Z,23.52
2024-05-09T13:55:26.241Z,23.50
2024-05-09T13:58:11.910Z,23.30
2024-05-09T14:00:57.192Z,22.97
2024-05-09T14:03:42.830Z,23.27
2024-05-09T14:06:28.373Z,23.10
2024-05-09T14:09:13.948Z,23.15
2024-05-09T14:11:59.672Z,23.09
2024-05-09T14:14:45.343Z,23.01
2024-05-09T14:17:31.020Z,23.13
2024-05-09T14:20:23.886Z,23.07
2024-05-09T14:23:18.155Z,23.00
2024-05-09T14:26:03.367Z,22.93
2024-05-09T14:28:48.687Z,22.93
2024-05-09T14:31:35.536Z,22.37
2024-05-09T14:34:22.896Z,22.55
2024-05-09T14:37:08.548Z,22.66
2024-05-09T14:39:54.072Z,22.59
2024-05-09T14:42:39.965Z,22.58
2024-05-09T14:45:25.296Z,22.51
2024-05-09T14:48:12.142Z,22.86
2024-05-09T14:50:57.472Z,22.90
2024-05-09T14:53:43.277Z,22.98
2024-05-09T14:56:29.250Z,23.05
2024-05-09T14:59:14.472Z,23.06
2024-05-09T15:02:00.295Z,23.12
2024-05-09T15:04:45.836Z,23.28
2024-05-09T15:07:31.323Z,23.27
2024-05-09T15:10:26.225Z,23.18
2024-05-09T15:13:17.528Z,23.17
2024-05-09T15:16:02.978Z,23.26
2024-05-09T15:18:48.472Z,23.30
2024-05-09T15:21:33.966Z,23.25
2024-05-09T15:24:19.469Z,23.28
2024-05-09T15:27:04.776Z,23.28
2024-05-09T15:29:50.046Z,23.02
2024-05-09T15:32:35.742Z,23.31
2024-05-09T15:35:21.520Z,23.34
2024-05-09T15:40:52.768Z,23.22
2024-05-09T15:43:38.406Z,23.16
2024-05-09T15:46:24.134Z,23.05
2024-05-09T15:49:10.033Z,23.26
2024-05-09T15:51:55.479Z,23.25
2024-05-09T15:54:40.764Z,23.16
2024-05-09T15:57:26.317Z,22.96
2024-05-09T16:00:21.863Z,23.09
2024-05-09T16:03:15.099Z,23.03
2024-05-09T16:06:01.346Z,22.92
2024-05-09T16:08:46.706Z,22.96
2024-05-09T16:11:32.339Z,23.05
2024-05-09T16:14:19.018Z,22.94
2024-05-09T16:17:05.168Z,22.88
2024-05-09T16:19:50.438Z,22.88
2024-05-09T16:22:35.463Z,22.89
2024-05-09T16:25:20.856Z,22.86
2024-05-09T16:28:09.729Z,22.77
2024-05-09T16:30:56.124Z,22.61
2024-05-09T16:33:41.894Z,22.64
2024-05-09T16:36:27.289Z,22.74
2024-05-09T16:39:12.708Z,22.66
2024-05-09T16:41:57.894Z,22.66
2024-05-09T16:44:43.488Z,22.49
2024-05-09T16:47:29.547Z,22.49
2024-05-09T16:50:19.089Z,22.46
2024-05-09T16:53:08.662Z,22.28
2024-05-09T16:55:54.806Z,22.28
2024-05-09T16:58:40.459Z,22.28
2024-05-09T17:01:26.291Z,22.30
2024-05-09T17:04:11.744Z,22.31
2024-05-09T17:06:57.271Z,22.21
2024-05-09T17:09:42.592Z,22.10
2024-05-09T17:12:27.900Z,21.96
2024-05-09T17:15:13.871Z,21.79
2024-05-09T17:17:59.653Z,21.75
2024-05-09T17:20:45.066Z,21.74
2024-05-09T17:23:31.854Z,21.67
2024-05-09T17:26:18.819Z,21.61
2024-05-09T17:29:05.381Z,21.54
2024-05-09T17:31:51.589Z,21.59
2024-05-09T17:34:37.425Z,21.51
2024-05-09T17:37:22.961Z,21.48
2024-05-09T17:40:16.614Z,21.58
2024-05-09T17:43:03.392Z,21.46
2024-05-09T17:45:49.104Z,21.21
2024-05-09T17:48:35.031Z,21.48
2024-05-09T17:51:20.594Z,21.51
2024-05-09T17:54:06.144Z,21.48
2024-05-09T17:56:51.766Z,21.39
2024-05-09T17:59:37.065Z,21.45
2024-05-09T18:02:22.807Z,21.41
2024-05-09T18:05:08.989Z,21.61
2024-05-09T18:07:54.871Z,21.76
2024-05-09T18:10:41.383Z,21.49
2024-05-09T18:13:27.445Z,21.39
2024-05-09T18:16:13.634Z,21.47
2024-05-09T18:18:59.058Z,21.35
2024-05-09T18:21:44.616Z,21.45
2024-05-09T18:24:30.058Z,21.42
2024-05-09T18:27:15.842Z,20.89
2024-05-09T18:30:01.206Z,20.83
2024-05-09T18:32:46.800Z,20.84
2024-05-09T18:35:32.365Z,20.86
2024-05-09T18:38:19.042Z,20.86
2024-05-09T18:41:05.097Z,20.89
2024-05-09T18:43:51.045Z,20.88
2024-05-09T18:46:36.476Z,20.74
2024-05-09T18:49:22.004Z,20.78
2024-05-09T18:52:07.491Z,20.79
2024-05-09T18:54:52.862Z,20.79
2024-05-09T18:57:38.316Z,20.67
2024-05-09T19:00:33.231Z,20.65
2024-05-09T19:03:22.620Z,20.40
2024-05-09T19:06:09.564Z,20.33
2024-05-09T19:08:54.953Z,20.32
2024-05-09T19:11:40.920Z,20.17
2024-05-09T19:14:26.143Z,20.40
2024-05-09T19:17:11.801Z,20.07
2024-05-09T19:19:57.513Z,20.00
2024-05-09T19:22:50.803Z,19.96
2024-05-09T19:25:36.680Z,19.81
2024-05-09T19:28:22.236Z,20.24
2024-05-09T19:31:13.970Z,19.97
2024-05-09T19:33:59.141Z,20.17
2024-05-09T19:36:44.881Z,20.14
2024-05-09T19:39:30.086Z,20.08
2024-05-09T19:42:15.666Z,20.04
2024-05-09T19:45:01.198Z,20.00
2024-05-09T19:47:47.165Z,19.83
2024-05-09T19:50:41.683Z,19.89
2024-05-09T19:53:29.612Z,19.74
2024-05-09T19:56:15.303Z,20.07
2024-05-09T19:59:00.998Z,20.05
2024-05-09T20:01:56.238Z,20.01
2024-05-09T20:04:45.712Z,20.01
2024-05-09T20:07:33.224Z,19.93
2024-05-09T20:10:23.915Z,19.93
2024-05-09T20:13:15.048Z,19.58
2024-05-09T20:16:01.488Z,19.68
2024-05-09T20:18:47.202Z,19.66
2024-05-09T20:21:32.625Z,19.54
2024-05-09T20:24:18.201Z,19.42
2024-05-09T20:27:03.877Z,19.49
2024-05-09T20:29:49.536Z,19.35
2024-05-09T20:32:35.045Z,19.38
2024-05-09T20:35:20.813Z,19.27
2024-05-09T20:38:06.219Z,19.31
2024-05-09T20:40:51.895Z,19.35
2024-05-09T20:43:37.062Z,19.40
2024-05-09T20:46:22.669Z,19.37
2024-05-09T20:49:08.599Z,19.28
2024-05-09T20:51:54.115Z,19.38
2024-05-09T20:54:39.563Z,19.20
2024-05-09T20:57:25.189Z,19.25
2024-05-09T21:00:15.383Z,19.26
2024-05-09T21:03:04.855Z,19.27
2024-05-09T21:05:50.716Z,19.03
2024-05-09T21:08:36.440Z,19.26
2024-05-09T21:11:23.071Z,19.28
2024-05-09T21:14:08.652Z,19.23
2024-05-09T21:16:54.226Z,19.16
2024-05-09T21:19:39.432Z,19.03
2024-05-09T21:22:25.262Z,19.20
2024-05-09T21:25:11.008Z,19.12
2024-05-09T21:27:56.557Z,19.21
2024-05-09T21:30:43.215Z,19.01
2024-05-09T21:33:28.927Z,19.28
2024-05-09T21:36:14.376Z,19.00
2024-05-09T21:38:59.428Z,19.16
2024-05-09T21:41:45.228Z,19.18
2024-05-09T21:44:30.585Z,19.00
2024-05-09T21:47:16.057Z,19.07
2024-05-09T21:50:01.694Z,19.11
2024-05-09T21:52:47.007Z,19.11
2024-05-09T21:55:32.178Z,19.13
2024-05-09T21:58:26.580Z,19.12
2024-05-09T22:01:13.573Z,19.15
2024-05-09T22:03:59.205Z,18.98
2024-05-09T22:06:44.612Z,18.94
2024-05-09T22:09:29.726Z,18.90
2024-05-09T22:12:14.999Z,18.60
2024-05-09T22:15:00.345Z,18.84
2024-05-09T22:17:46.156Z,18.86
2024-05-09T22:20:37.149Z,18.77
2024-05-09T22:23:24.526Z,18.71
2024-05-09T22:26:09.857Z,18.75
2024-05-09T22:28:55.497Z,18.78
2024-05-09T22:31:40.992Z,18.65
2024-05-09T22:34:26.713Z,18.79
2024-05-09T22:37:12.506Z,18.57
2024-05-09T22:39:58.000Z,18.49
2024-05-09T22:42:43.589Z,18.32
2024-05-09T22:45:29.145Z,18.47
2024-05-09T22:48:14.952Z,18.54
2024-05-09T22:51:00.823Z,18.47
2024-05-09T22:53:45.871Z,18.61
2024-05-09T22:56:31.475Z,18.49
2024-05-09T22:59:18.086Z,18.57
2024-05-09T23:02:03.958Z,18.53
2024-05-09T23:04:49.543Z,18.46
2024-05-09T23:07:34.775Z,18.53
2024-05-09T23:10:27.492Z,18.53
2024-05-09T23:13:17.848Z,18.36
2024-05-09T23:16:03.523Z,18.45
2024-05-09T23:18:48.966Z,18.41
2024-05-09T23:21:38.672Z,18.16
2024-05-09T23:24:24.016Z,18.31
2024-05-09T23:27:09.777Z,18.22
2024-05-09T23:29:55.268Z,18.16
2024-05-09T23:32:40.661Z,18.14
2024-05-09T23:35:26.602Z,18.21
2024-05-09T23:38:12.498Z,18.25
2024-05-09T23:40:58.349Z,18.26
2024-05-09T23:43:43.614Z,18.10
2024-05-09T23:46:29.450Z,17.99
2024-05-09T23:49:15.025Z,18.01
2024-05-09T23:52:00.539Z,17.94
2024-05-09T23:54:46.849Z,17.89
2024-05-09T23:57:32.588Z,17.81
